createdAt,value
2023-02-14T00:00:52.487Z,42.2
2023-02-14T00:02:55.579Z,40.9
2023-02-14T00:04:58.550Z,43.6
2023-02-14T00:07:01.493Z,43.7
2023-02-14T00:09:04.574Z,44.5
2023-02-14T00:11:07.493Z,40.8
2023-02-14T00:13:13.694Z,43.3
2023-02-14T00:15:16.683Z,47.1
2023-02-14T00:17:19.712Z,50.1
2023-02-14T00:19:22.677Z,49.1
2023-02-14T00:21:25.675Z,46.1
2023-02-14T00:23:28.657Z,54.7
2023-02-14T00:25:31.678Z,52.3
2023-02-14T00:27:37.886Z,60.6
2023-02-14T00:29:40.858Z,54.9
2023-02-14T00:31:43.869Z,86
2023-02-14T00:33:46.876Z,70.6
2023-02-14T00:37:52.864Z,56.2
2023-02-14T00:42:02.100Z,54.4
2023-02-14T00:44:05.082Z,55.1
2023-02-14T00:46:08.153Z,54.2
2023-02-14T00:47:11.195Z,58.6
2023-02-14T00:49:14.191Z,52.8
2023-02-14T00:51:17.215Z,56.5
2023-02-14T00:53:20.243Z,52.7
2023-02-14T00:55:26.400Z,52.2
2023-02-14T00:57:29.421Z,48.3
2023-02-14T00:59:32.426Z,47.5
2023-02-14T01:01:35.446Z,47
2023-02-14T01:03:38.480Z,52.4
2023-02-14T01:05:41.454Z,46.3
2023-02-14T01:07:44.434Z,47.2
2023-02-14T01:09:50.637Z,54.1
2023-02-14T01:11:53.653Z,46.7
2023-02-14T01:13:56.798Z,48.9
2023-02-14T01:15:59.632Z,49.8
2023-02-14T01:20:05.662Z,48.3
2023-02-14T01:22:08.661Z,52.4
2023-02-14T01:24:14.854Z,41.8
2023-02-14T01:26:17.859Z,57.8
2023-02-14T01:28:20.866Z,51.2
2023-02-14T01:30:23.932Z,37.4
2023-02-14T01:32:26.827Z,52.8
2023-02-14T01:34:29.846Z,49.9
2023-02-14T01:36:32.840Z,49.4
2023-02-14T01:38:39.056Z,46.6
2023-02-14T01:43:48.161Z,47.6
2023-02-14T01:47:54.176Z,53.8
2023-02-14T01:54:06.354Z,54.7
2023-02-14T02:02:18.377Z,43.7
2023-02-14T02:06:27.540Z,42.1
2023-02-14T02:12:36.536Z,42.4
2023-02-14T02:16:42.589Z,41.3
2023-02-14T02:18:45.544Z,46.5
2023-02-14T02:27:00.747Z,46
2023-02-14T02:29:03.701Z,48.7
2023-02-14T02:31:06.824Z,41.3
2023-02-14T02:33:11.299Z,50.2
2023-02-14T02:35:17.468Z,45.4
2023-02-14T02:37:20.470Z,38.6
2023-02-14T02:39:23.433Z,38.8
2023-02-14T02:41:53.365Z,51.3
2023-02-14T02:54:14.509Z,58.8
2023-02-14T03:00:23.502Z,56
2023-02-14T03:04:32.714Z,48.6
2023-02-14T03:06:35.668Z,40.9
2023-02-14T03:16:53.808Z,43.3
2023-02-14T03:33:20.959Z,27.8
2023-02-14T03:36:27.026Z,30
2023-02-14T03:38:30.013Z,32
2023-02-14T03:40:32.994Z,30.6
2023-02-14T03:42:35.997Z,29.1
2023-02-14T03:44:42.181Z,33.9
2023-02-14T03:46:45.206Z,29.9
2023-02-14T03:48:48.112Z,26.2
2023-02-14T03:50:51.123Z,35.8
2023-02-14T03:52:54.089Z,31.3
2023-02-14T03:54:57.074Z,29.2
2023-02-14T03:57:00.048Z,26.4
2023-02-14T03:59:06.241Z,31.2
2023-02-14T04:01:09.203Z,26.9
2023-02-14T04:03:12.224Z,28.1
2023-02-14T04:05:15.173Z,24.2
2023-02-14T04:07:18.136Z,27.3
2023-02-14T04:11:24.733Z,28.8
2023-02-14T04:13:30.271Z,27.3
2023-02-14T04:15:33.277Z,26.8
2023-02-14T04:17:36.225Z,29.6
2023-02-14T04:19:39.180Z,34.6
2023-02-14T04:21:42.149Z,23.7
2023-02-14T04:23:45.134Z,28.5
2023-02-14T04:25:48.087Z,27.9
2023-02-14T04:29:57.308Z,27.4
2023-02-14T04:32:00.386Z,32.1
2023-02-14T04:33:03.281Z,28
2023-02-14T04:35:06.242Z,25.5
2023-02-14T04:37:09.208Z,28.4
2023-02-14T04:39:12.165Z,31
2023-02-14T04:41:18.353Z,27.9
2023-02-14T04:43:21.339Z,30.8
2023-02-14T04:45:24.278Z,25.2
2023-02-14T04:47:27.235Z,25.1
2023-02-14T04:49:30.200Z,27.5
2023-02-14T04:51:33.166Z,28.9
2023-02-14T04:53:36.125Z,28.1
2023-02-14T04:55:42.305Z,27.5
2023-02-14T04:57:45.279Z,27.2
2023-02-14T04:59:48.210Z,26.8
2023-02-14T05:01:51.183Z,22.5
2023-02-14T05:03:54.118Z,25.3
2023-02-14T05:05:57.076Z,27
2023-02-14T05:10:06.198Z,28.2
2023-02-14T05:12:09.162Z,25.6
2023-02-14T05:14:12.110Z,25.9
2023-02-14T05:16:15.146Z,26.6
2023-02-14T05:18:17.998Z,22
2023-02-14T05:22:23.927Z,23
2023-02-14T05:28:35.959Z,24
2023-02-14T05:31:42.145Z,20.4
2023-02-14T05:33:44.950Z,24.1
2023-02-14T05:35:47.887Z,27.6
2023-02-14T05:39:56.994Z,26.4
2023-02-14T05:41:59.923Z,25.5
2023-02-14T05:44:02.885Z,25
2023-02-14T05:52:17.886Z,27.5
2023-02-14T05:56:23.764Z,25.8
2023-02-14T06:02:32.664Z,24.7
2023-02-14T06:04:35.748Z,27.3
2023-02-14T06:06:41.695Z,29.7
2023-02-14T06:08:44.641Z,28.8
2023-02-14T06:10:47.566Z,26.7
2023-02-14T06:12:50.523Z,29.4
2023-02-14T06:23:08.408Z,31.6
2023-02-14T06:29:44.237Z,33.2
2023-02-14T06:40:02.211Z,30.1
2023-02-14T06:46:11.141Z,29.3
2023-02-14T06:48:17.173Z,33.7
2023-02-14T06:54:26.012Z,29.3
2023-02-14T06:58:31.881Z,30.9
2023-02-14T07:00:34.818Z,33.4
2023-02-14T07:04:43.905Z,34.5
2023-02-14T07:06:46.881Z,36.6
2023-02-14T07:08:49.790Z,31.6
2023-02-14T07:12:55.645Z,32.6
2023-02-14T07:19:07.696Z,33.6
2023-02-14T07:21:10.603Z,31.8
2023-02-14T07:22:13.678Z,34
2023-02-14T07:24:16.641Z,34.4
2023-02-14T07:26:19.543Z,30.8
2023-02-14T07:28:22.490Z,34.7
2023-02-14T07:30:28.867Z,37
2023-02-14T07:32:31.583Z,36
2023-02-14T07:34:34.522Z,33.9
2023-02-14T07:36:37.467Z,37.2
2023-02-14T07:38:40.388Z,35.9
2023-02-14T07:40:43.347Z,38.2
2023-02-14T07:42:46.276Z,36.5
2023-02-14T07:44:52.447Z,36.9
2023-02-14T07:46:55.372Z,34.2
2023-02-14T07:48:58.323Z,39.5
2023-02-14T07:51:01.772Z,36.4
2023-02-14T07:53:04.232Z,37.9
2023-02-14T07:55:07.158Z,36.4
2023-02-14T07:57:10.113Z,41.7
2023-02-14T07:59:16.253Z,38.6
2023-02-14T08:01:19.281Z,40.6
2023-02-14T08:03:22.161Z,38.8
2023-02-14T08:05:25.184Z,37.8
2023-02-14T08:07:28.072Z,40.5
2023-02-14T08:09:31.059Z,42
2023-02-14T08:11:33.958Z,41.5
2023-02-14T08:18:49.172Z,40.9
2023-02-14T08:22:55.094Z,43.1
2023-02-14T08:24:58.068Z,41.6
2023-02-14T08:27:05.831Z,45.3
2023-02-14T08:29:08.810Z,45.5
2023-02-14T08:31:11.791Z,46.6
2023-02-14T08:33:14.791Z,45
2023-02-14T08:35:17.757Z,42.4
2023-02-14T08:37:20.748Z,43
2023-02-14T08:39:23.749Z,44.8
2023-02-14T08:41:29.984Z,42.4
2023-02-14T08:43:34.369Z,37.6
2023-02-14T08:45:36.013Z,40.7
2023-02-14T08:47:39.049Z,37.4
2023-02-14T08:49:42.096Z,37.1
2023-02-14T08:51:45.105Z,32.7
2023-02-14T08:53:48.132Z,33.7
2023-02-14T08:55:54.437Z,27.8
2023-02-14T08:57:57.464Z,22.7
2023-02-14T09:00:00.519Z,23.2
2023-02-14T09:02:03.600Z,22.2
2023-02-14T09:04:06.671Z,22
2023-02-14T09:06:09.706Z,16.7
2023-02-14T09:08:12.780Z,14.3
2023-02-14T09:14:25.255Z,12.8
2023-02-14T09:17:31.550Z,10.9
2023-02-14T09:19:34.570Z,12.2
2023-02-14T09:21:37.659Z,12
2023-02-14T09:23:43.952Z,12.2
2023-02-14T09:25:47.040Z,10.6
2023-02-14T09:27:50.159Z,16
2023-02-14T09:31:56.480Z,11.9
2023-02-14T09:33:59.471Z,14.1
2023-02-14T09:36:02.580Z,13.3
2023-02-14T09:38:08.905Z,15.3
2023-02-14T09:42:15.134Z,12
2023-02-14T09:44:18.272Z,15.4
2023-02-14T09:46:21.455Z,14.8
2023-02-14T09:48:25.711Z,11.4
2023-02-14T09:52:34.006Z,16.2
2023-02-14T09:56:50.537Z,12.9
2023-02-14T09:58:43.436Z,11.8
2023-02-14T10:00:46.651Z,12.4
2023-02-14T10:02:49.706Z,14.9
2023-02-14T10:04:52.732Z,13
2023-02-14T10:06:58.888Z,12
2023-02-14T10:09:01.938Z,14.5
2023-02-14T10:11:05.017Z,12.7
2023-02-14T10:13:29.000Z,15.8
2023-02-14T10:15:32.078Z,16.9
2023-02-14T10:17:35.306Z,16.5
2023-02-14T10:19:41.269Z,16.4
2023-02-14T10:21:45.936Z,16.4
2023-02-14T10:23:47.450Z,15.2
2023-02-14T10:25:50.582Z,15.9
2023-02-14T10:29:56.942Z,16.6
2023-02-14T10:32:00.064Z,14.6
2023-02-14T10:34:06.366Z,17.5
2023-02-14T10:36:09.498Z,16.2
2023-02-14T10:38:12.632Z,15.7
2023-02-14T10:40:17.426Z,17.2
2023-02-14T10:42:18.910Z,17.2
2023-02-14T10:44:22.050Z,13.8
2023-02-14T10:46:25.351Z,14.2
2023-02-14T10:50:34.500Z,16.2
2023-02-14T10:52:37.525Z,14.8
2023-02-14T10:54:40.555Z,15
2023-02-14T11:00:49.692Z,15.3
2023-02-14T11:02:55.852Z,16.1
2023-02-14T11:04:58.862Z,14.6
2023-02-14T11:07:01.885Z,13.1
2023-02-14T11:08:04.969Z,14.4
2023-02-14T11:12:11.128Z,14
2023-02-14T11:16:20.226Z,13.5
2023-02-14T11:20:26.285Z,8.6
2023-02-14T11:22:29.326Z,10.8
2023-02-14T11:24:32.356Z,10.9
2023-02-14T11:28:41.014Z,9.2
2023-02-14T11:32:47.534Z,11.9
2023-02-14T11:34:50.551Z,11.3
2023-02-14T11:36:53.596Z,10
2023-02-14T11:38:56.591Z,10.5
2023-02-14T11:40:59.934Z,10.6
2023-02-14T11:43:14.277Z,10.4
2023-02-14T11:45:08.745Z,11.4
2023-02-14T11:47:11.737Z,10.9
2023-02-14T11:49:14.742Z,12
2023-02-14T11:51:17.754Z,10.4
2023-02-14T11:53:20.821Z,11.6
2023-02-14T11:57:26.783Z,10.7
2023-02-14T11:59:32.906Z,13.8
2023-02-14T12:03:38.916Z,11.3
2023-02-14T12:08:47.916Z,12.1
2023-02-14T12:10:50.909Z,10.7
2023-02-14T12:12:57.034Z,11.8
2023-02-14T12:15:00.016Z,11.2
2023-02-14T12:17:02.992Z,10.7
2023-02-14T12:19:05.998Z,11.9
2023-02-14T12:21:08.953Z,10.9
2023-02-14T12:27:21.993Z,12.6
2023-02-14T12:29:24.926Z,10.4
2023-02-14T12:31:28.059Z,9.8
2023-02-14T12:33:30.886Z,11.6
2023-02-14T12:35:33.847Z,10.8
2023-02-14T12:39:39.768Z,10.3
2023-02-14T12:41:45.865Z,10.4
2023-02-14T12:43:48.796Z,9.7
2023-02-14T12:49:57.654Z,9.4
2023-02-14T12:52:00.625Z,7.6
2023-02-14T12:54:03.579Z,8.3
2023-02-14T12:56:09.638Z,9.8
2023-02-14T12:58:12.585Z,9.2
2023-02-14T13:09:33.600Z,10.5
2023-02-14T13:13:39.291Z,7.6
2023-02-14T13:15:42.221Z,9.2
2023-02-14T13:21:50.977Z,6.7
2023-02-14T13:25:59.965Z,8
2023-02-14T13:28:02.894Z,8.2
2023-02-14T13:30:05.829Z,6.3
2023-02-14T13:40:23.478Z,5.7
2023-02-14T13:42:26.371Z,7.7
2023-02-14T13:44:29.309Z,7.3
2023-02-14T13:46:32.321Z,7.1
2023-02-14T13:48:37.403Z,6.1
2023-02-14T13:50:38.025Z,5.9
2023-02-14T13:52:44.112Z,7.7
2023-02-14T13:54:47.011Z,7
2023-02-14T13:56:49.919Z,8.9
2023-02-14T14:01:21.970Z,8.2
2023-02-14T14:03:24.864Z,7.3
2023-02-14T14:07:33.823Z,7
2023-02-14T14:13:42.641Z,9.8
2023-02-14T14:15:45.508Z,7.9
2023-02-14T14:19:56.031Z,8.1
2023-02-14T14:21:58.924Z,6.4
2023-02-14T14:24:01.872Z,7.9
2023-02-14T14:26:04.801Z,5.9
2023-02-14T14:28:07.767Z,7.2
2023-02-14T14:32:13.808Z,8.2
2023-02-14T14:34:19.807Z,9.8
2023-02-14T14:36:22.782Z,10.6
2023-02-14T14:38:25.775Z,9.8
2023-02-14T14:42:31.762Z,10.6
2023-02-14T14:44:34.766Z,10.2
2023-02-14T14:48:43.865Z,10
2023-02-14T14:53:52.946Z,11.3
2023-02-14T14:55:55.975Z,11
2023-02-14T14:57:59.001Z,9.2
2023-02-14T15:00:02.147Z,9.1
2023-02-14T15:02:08.174Z,11.6
2023-02-14T15:04:12.430Z,10.5
2023-02-14T15:06:14.244Z,10.9
2023-02-14T15:08:17.302Z,11.2
2023-02-14T15:10:20.356Z,11.6
2023-02-14T15:12:23.405Z,11.6
2023-02-14T15:14:26.443Z,9.6
2023-02-14T15:16:32.656Z,11.3
2023-02-14T15:18:35.598Z,10.4
2023-02-14T15:20:38.655Z,10.8
2023-02-14T15:22:41.731Z,9.7
2023-02-14T15:24:44.775Z,8.9
2023-02-14T15:26:47.807Z,8.3
2023-02-14T15:28:50.852Z,9.8
2023-02-14T15:30:57.083Z,12.8
2023-02-14T15:33:00.023Z,9.7
2023-02-14T15:35:03.069Z,11.7
2023-02-14T15:37:06.347Z,11.2
2023-02-14T15:39:09.163Z,10.6
2023-02-14T15:41:12.198Z,9.5
2023-02-14T15:43:15.249Z,11.1
2023-02-14T15:45:21.431Z,11
2023-02-14T15:47:24.473Z,10
2023-02-14T15:49:27.495Z,12.6
2023-02-14T15:50:30.590Z,10.7
2023-02-14T15:52:33.674Z,11.3
2023-02-14T15:54:36.737Z,10.9
2023-02-14T15:56:39.731Z,11.8
2023-02-14T15:58:45.928Z,10.6
2023-02-14T16:00:48.945Z,11.4
2023-02-14T16:02:52.156Z,10.1
2023-02-14T16:04:55.066Z,13.3
2023-02-14T16:06:58.117Z,12.4
2023-02-14T16:09:01.195Z,10.4
2023-02-14T16:11:04.228Z,12.5
2023-02-14T16:15:13.418Z,12.2
2023-02-14T16:21:22.556Z,19.5
2023-02-14T16:23:25.621Z,12.8
2023-02-14T16:27:35.058Z,15.1
2023-02-14T16:29:38.064Z,12.3
2023-02-14T16:31:48.525Z,13.3
2023-02-14T16:33:44.396Z,11.2
2023-02-14T16:44:03.350Z,15.7
2023-02-14T16:47:09.639Z,13.8
2023-02-14T16:49:12.792Z,11.3
2023-02-14T16:51:15.927Z,13.2
2023-02-14T16:53:19.097Z,13.9
2023-02-14T16:55:25.438Z,13.7
2023-02-14T16:57:28.581Z,11.2
2023-02-14T16:59:31.714Z,12.6
2023-02-14T17:01:34.908Z,13
2023-02-14T17:03:38.007Z,17.4
2023-02-14T17:05:41.154Z,13.2
2023-02-14T17:07:44.261Z,14.6
2023-02-14T17:09:50.738Z,12.9
2023-02-14T17:11:53.741Z,14.1
2023-02-14T17:13:56.877Z,13.7
2023-02-14T17:16:00.058Z,11.1
2023-02-14T17:18:03.111Z,12.5
2023-02-14T17:20:06.336Z,13.2
2023-02-14T17:22:09.404Z,12.3
2023-02-14T17:24:15.744Z,14.4
2023-02-14T17:26:18.896Z,14.5
2023-02-14T17:28:22.025Z,14.8
2023-02-14T17:30:25.233Z,15.1
2023-02-14T17:32:28.364Z,14
2023-02-14T17:34:31.459Z,16.1
2023-02-14T17:36:34.571Z,16.7
2023-02-14T17:38:40.925Z,18.8
2023-02-14T17:40:44.038Z,17.6
2023-02-14T17:42:47.173Z,16.7
2023-02-14T17:47:14.087Z,14.9
2023-02-14T17:49:17.227Z,16.6
2023-02-14T17:51:23.578Z,15.8
2023-02-14T17:55:29.818Z,18.9
2023-02-14T17:59:36.097Z,19
2023-02-14T18:01:39.285Z,18.8
2023-02-14T18:09:55.006Z,15
2023-02-14T18:14:01.240Z,21.1
2023-02-14T18:16:04.466Z,21.1
2023-02-14T18:18:07.523Z,22.1
2023-02-14T18:20:13.849Z,28.5
2023-02-14T18:22:16.977Z,24.1
2023-02-14T18:24:20.097Z,25.7
2023-02-14T18:26:23.207Z,26
2023-02-14T18:28:26.328Z,27.4
2023-02-14T18:30:29.500Z,23.1
2023-02-14T18:34:38.904Z,30.6
2023-02-14T18:36:42.031Z,48.6
2023-02-14T18:38:45.138Z,31.5
2023-02-14T18:39:48.307Z,28.5
2023-02-14T18:41:51.424Z,22.1
2023-02-14T18:43:54.559Z,28.1
2023-02-14T18:45:57.686Z,27.5
2023-02-14T18:48:04.001Z,27.5
2023-02-14T18:50:07.127Z,24
2023-02-14T18:54:13.335Z,21.5
2023-02-14T18:56:16.479Z,20.9
2023-02-14T19:06:35.208Z,20.2
2023-02-14T19:08:38.319Z,21.2
2023-02-14T19:10:41.422Z,20.9
2023-02-14T19:12:44.494Z,17.5
2023-02-14T19:14:47.589Z,19.8
2023-02-14T19:16:54.482Z,19.2
2023-02-14T19:18:56.963Z,20.4
2023-02-14T19:21:00.488Z,27.7
2023-02-14T19:23:03.172Z,27.5
2023-02-14T19:25:06.260Z,31.6
2023-02-14T19:27:09.362Z,36.8
2023-02-14T19:31:18.905Z,26.3
2023-02-14T19:33:21.864Z,24.5
2023-02-14T19:35:24.946Z,26.3
2023-02-14T19:36:28.080Z,27
2023-02-14T19:38:31.189Z,25.9
2023-02-14T19:40:34.282Z,24.8
2023-02-14T19:42:37.374Z,24.2
2023-02-14T19:44:43.673Z,24
2023-02-14T19:46:46.763Z,25.6
2023-02-14T19:48:49.847Z,30.5
2023-02-14T19:50:52.942Z,30.8
2023-02-14T19:52:56.041Z,26.9
2023-02-14T19:54:59.109Z,25.2
2023-02-14T19:57:02.210Z,28.6
2023-02-14T19:59:08.500Z,31.3
2023-02-14T20:01:11.588Z,30.8
2023-02-14T20:03:14.649Z,28.1
2023-02-14T20:05:17.762Z,29.4
2023-02-14T20:07:20.822Z,30.3
2023-02-14T20:09:23.888Z,30.9
2023-02-14T20:11:26.956Z,32.5
2023-02-14T20:13:33.244Z,33.6
2023-02-14T20:19:43.976Z,28.6
2023-02-14T20:23:50.127Z,27.8
2023-02-14T20:25:53.189Z,29
2023-02-14T20:32:05.700Z,27.9
2023-02-14T20:33:08.742Z,27.2
2023-02-14T20:35:11.811Z,27.5
2023-02-14T20:37:14.868Z,29.9
2023-02-14T20:39:17.947Z,30.4
2023-02-14T20:41:24.213Z,35.3
2023-02-14T20:43:27.304Z,28.3
2023-02-14T20:45:30.356Z,28.4
2023-02-14T20:47:33.427Z,34.9
2023-02-14T20:49:36.471Z,37
2023-02-14T20:51:39.554Z,37
2023-02-14T20:53:42.591Z,34.1
2023-02-14T20:55:48.887Z,35
2023-02-14T20:59:54.998Z,30
2023-02-14T21:01:58.110Z,32.4
2023-02-14T21:04:01.208Z,30.5
2023-02-14T21:18:25.780Z,32.7
2023-02-14T21:20:28.840Z,31.7
2023-02-14T21:24:38.148Z,32.8
2023-02-14T21:26:41.206Z,30.3
2023-02-14T21:28:44.248Z,32
2023-02-14T21:31:14.212Z,29.3
2023-02-14T21:33:17.188Z,27.2
2023-02-14T21:35:20.219Z,28.7
2023-02-14T21:37:26.500Z,27.6
2023-02-14T21:39:29.537Z,30.8
2023-02-14T21:43:35.648Z,31.2
2023-02-14T21:49:44.780Z,31.2
2023-02-14T21:51:51.039Z,32.2
2023-02-14T21:53:54.084Z,35.8
2023-02-14T21:55:57.118Z,30.6
2023-02-14T21:58:00.169Z,28.4
2023-02-14T22:00:03.651Z,31.7
2023-02-14T22:02:06.668Z,31.7
2023-02-14T22:04:09.723Z,33.6
2023-02-14T22:06:15.966Z,31.8
2023-02-14T22:08:19.008Z,33
2023-02-14T22:12:25.092Z,33.1
2023-02-14T22:14:28.132Z,33
2023-02-14T22:16:31.169Z,32.6
2023-02-14T22:18:34.204Z,33
2023-02-14T22:20:40.453Z,32.5
2023-02-14T22:22:43.503Z,31.7
2023-02-14T22:29:55.772Z,31.2
2023-02-14T22:31:58.916Z,32.1
2023-02-14T22:34:05.000Z,28.9
2023-02-14T22:36:08.046Z,33
2023-02-14T22:38:12.110Z,32.3
2023-02-14T22:40:14.110Z,32.1
2023-02-14T22:42:17.134Z,31.3
2023-02-14T22:44:20.187Z,33.6
2023-02-14T22:46:23.222Z,29
2023-02-14T22:52:35.498Z,34.5
2023-02-14T22:54:38.543Z,32.5
2023-02-14T22:56:41.582Z,33.8
2023-02-14T22:58:44.602Z,28.8
2023-02-14T23:00:47.600Z,28.3
2023-02-14T23:02:53.885Z,33
2023-02-14T23:04:57.296Z,29.8
2023-02-14T23:06:59.902Z,31.8
2023-02-14T23:09:02.906Z,29.6
2023-02-14T23:11:05.919Z,29.5
2023-02-14T23:13:08.963Z,29.2
2023-02-14T23:15:11.948Z,28.8
2023-02-14T23:17:18.202Z,29.2
2023-02-14T23:21:24.234Z,27.1
2023-02-14T23:26:33.377Z,28.2
2023-02-14T23:30:42.604Z,26.2
2023-02-14T23:32:45.624Z,24.7
2023-02-14T23:34:48.630Z,25.6
2023-02-14T23:38:54.653Z,26.5
2023-02-14T23:40:57.680Z,27.7
2023-02-14T23:43:00.698Z,23.4
2023-02-14T23:45:06.919Z,25.5
2023-02-14T23:47:09.927Z,27.6
2023-02-14T23:53:18.961Z,25.8
2023-02-14T23:55:21.975Z,25.7
2023-02-14T23:57:24.962Z,23.1
2023-02-14T23:59:31.190Z,24.1
